Time;durP1;ratioP1;P1;durP2;ratioP2;P2;SDS_P1;SDS_P2;PMS_P1;PMS_P2;Temp;Humidity;BMP_temperature;BMP_pressure;BME280_temperature;BME280_humidity;BME280_pressure;Samples;Min_cycle;Max_cycle;Signal;HPM_P1;HPM_P2
2023/06/23 00:00:30;;;;;;;8.63;7.72;;;16.20;99.90;;;-144.05;100.00;56912.56;5020785;28;20037;-87
2023/06/23 00:02:57;;;;;;;9.63;7.82;;;16.20;99.90;;;-144.05;99.69;56916.81;5019760;28;20025;-86
2023/06/23 00:05:25;;;;;;;8.80;7.40;;;16.20;99.90;;;-144.05;99.15;56906.19;5021528;28;20492;-89
2023/06/23 00:07:52;;;;;;;8.73;6.65;;;16.10;99.90;;;-144.05;99.58;56927.41;5020471;28;20173;-86
2023/06/23 00:10:18;;;;;;;9.00;7.32;;;16.10;99.90;;;-144.05;98.62;56931.66;5038206;28;20032;-91
2023/06/23 00:12:44;;;;;;;7.82;6.53;;;16.00;99.90;;;-144.05;98.86;56914.69;5038007;28;20029;-86
2023/06/23 00:15:15;;;;;;;9.80;7.70;;;16.00;99.90;;;-144.05;99.01;56921.06;5019911;28;20129;-86
2023/06/23 00:17:47;;;;;;;9.27;7.70;;;16.00;99.90;;;-144.05;99.47;56904.06;5019881;28;20061;-85
2023/06/23 00:20:14;;;;;;;10.68;9.38;;;16.00;99.90;;;-144.05;99.30;56897.69;5037337;28;20071;-87
2023/06/23 00:22:44;;;;;;;12.40;9.02;;;16.00;99.90;;;-144.05;99.32;56929.53;5037379;28;20104;-86
2023/06/23 00:25:12;;;;;;;11.15;9.18;;;16.00;99.90;;;-144.05;99.03;56929.53;5019968;28;20026;-88
2023/06/23 00:27:45;;;;;;;12.18;9.85;;;16.10;99.90;;;-144.05;98.81;56916.81;5037718;28;20033;-88
2023/06/23 00:30:13;;;;;;;12.13;10.05;;;16.10;99.90;;;-144.05;98.91;56876.44;5019794;28;20064;-88
2023/06/23 00:32:41;;;;;;;10.68;9.57;;;16.10;99.90;;;-144.05;99.32;56901.94;5020781;28;20025;-89
2023/06/23 00:35:08;;;;;;;12.40;8.93;;;16.10;99.90;;;-144.05;99.03;56927.41;5036366;28;20393;-87
2023/06/23 00:37:38;;;;;;;13.07;9.70;;;16.10;99.90;;;-144.05;99.16;56923.19;5019485;28;20034;-86
2023/06/23 00:40:12;;;;;;;11.10;9.00;;;16.10;99.90;;;-144.05;99.29;56891.31;5035867;28;20515;-88
2023/06/23 00:42:52;;;;;;;10.20;8.40;;;16.10;99.90;;;-144.05;98.81;56914.69;5019541;28;20041;-89
2023/06/23 00:45:20;;;;;;;10.85;8.20;;;16.20;99.90;;;-144.05;98.78;56931.66;5037738;28;20087;-90
2023/06/23 00:47:47;;;;;;;13.15;8.45;;;16.10;99.90;;;-144.05;98.86;56914.69;5019814;28;20405;-89
2023/06/23 00:50:20;;;;;;;9.18;8.27;;;16.10;99.90;;;-144.05;98.70;56916.81;5026857;28;20053;-86
2023/06/23 00:52:52;;;;;;;9.10;7.90;;;16.10;99.90;;;-144.05;98.50;56916.81;5040629;28;20025;-85
2023/06/23 00:55:31;;;;;;;9.00;7.25;;;16.10;99.90;;;-144.05;98.24;56912.56;5040622;28;20030;-91
2023/06/23 00:57:58;;;;;;;10.27;7.35;;;16.10;99.90;;;-144.05;98.19;56938.03;5026035;28;20037;-87
2023/06/23 01:00:27;;;;;;;8.40;7.45;;;16.10;99.90;;;-144.05;98.77;56923.19;5055789;28;20085;-86
2023/06/23 01:03:01;;;;;;;8.20;6.75;;;16.10;99.90;;;-144.05;99.05;56923.19;5037398;28;20025;-85
2023/06/23 01:05:35;;;;;;;7.15;6.18;;;16.00;99.90;;;-144.05;99.09;56946.53;5036052;28;20025;-87
2023/06/23 01:08:41;;;;;;;7.57;6.78;;;16.00;99.90;;;-144.05;99.11;56921.06;5035330;28;20026;-87
2023/06/23 01:11:24;;;;;;;8.55;6.25;;;16.00;99.90;;;-144.05;98.79;56918.94;5036992;28;20025;-86
2023/06/23 01:14:06;;;;;;;9.95;6.18;;;16.00;99.90;;;-144.05;98.81;56916.81;5040651;28;20040;-85
2023/06/23 01:16:56;;;;;;;8.52;6.68;;;15.90;99.90;;;-144.05;98.71;56925.28;5040304;28;20079;-85
2023/06/23 01:20:00;;;;;;;9.95;6.22;;;15.90;99.90;;;-144.05;98.45;56908.31;5051600;28;20056;-86
2023/06/23 01:23:13;;;;;;;8.43;6.53;;;15.90;99.90;;;-144.05;98.09;56914.69;5017048;28;20112;-88
2023/06/23 01:26:09;;;;;;;9.07;6.88;;;15.90;99.90;;;-144.05;98.68;56906.19;5017722;28;20087;-87
2023/06/23 01:28:49;;;;;;;7.85;6.88;;;15.80;99.90;;;-144.05;98.49;56933.78;5017065;28;20548;-86
2023/06/23 01:31:36;;;;;;;7.97;6.95;;;15.80;99.90;;;-144.05;98.53;56893.44;5021333;28;20037;-88
2023/06/23 01:34:08;;;;;;;9.13;7.53;;;15.90;99.90;;;-144.05;98.27;56918.94;5022325;28;20041;-89
2023/06/23 01:37:07;;;;;;;8.95;7.40;;;15.80;99.90;;;-144.05;98.73;56912.56;5039153;28;20034;-89
2023/06/23 01:39:39;;;;;;;8.68;6.85;;;15.80;99.90;;;-144.05;98.71;56904.06;5021513;28;20592;-87
2023/06/23 01:42:18;;;;;;;9.23;7.10;;;15.80;99.90;;;-144.05;98.97;56921.06;5019941;28;20078;-89
2023/06/23 01:44:56;;;;;;;8.90;7.80;;;15.80;99.90;;;-144.05;99.02;56921.06;5019433;28;20492;-90
2023/06/23 01:47:33;;;;;;;8.93;7.00;;;15.80;99.90;;;-144.05;99.06;56908.31;5019612;28;20503;-88
2023/06/23 01:50:05;;;;;;;9.10;7.20;;;15.80;99.90;;;-144.05;98.38;56912.56;5020326;28;20061;-87
2023/06/23 01:52:37;;;;;;;10.00;7.68;;;15.80;99.90;;;-144.05;98.46;56906.19;5037579;28;20099;-88
2023/06/23 01:55:06;;;;;;;10.20;8.00;;;15.80;99.90;;;-144.05;98.37;56912.56;5018686;28;20069;-89
2023/06/23 01:57:37;;;;;;;10.60;8.05;;;15.80;99.90;;;-144.05;98.37;56908.31;5037115;28;20456;-89
2023/06/23 02:00:13;;;;;;;9.45;7.55;;;15.80;99.90;;;-144.05;98.48;56912.56;5019815;28;20034;-88
2023/06/23 02:02:49;;;;;;;11.10;8.13;;;15.80;99.90;;;-144.05;99.02;56955.03;5018421;28;20551;-88
2023/06/23 02:05:22;;;;;;;10.20;8.40;;;15.80;99.90;;;-144.05;99.06;56921.06;5019296;28;20033;-88
2023/06/23 02:07:52;;;;;;;10.48;8.75;;;15.90;99.90;;;-144.05;98.72;56942.28;5019033;28;20021;-88
2023/06/23 02:10:24;;;;;;;11.35;9.23;;;15.90;99.90;;;-144.05;99.14;56918.94;5017987;28;20022;-88
2023/06/23 02:12:53;;;;;;;11.93;9.68;;;15.90;99.90;;;-144.05;98.96;56942.28;5017210;28;20029;-90
2023/06/23 02:15:23;;;;;;;14.20;9.88;;;15.90;99.90;;;-144.05;98.94;56929.53;5017146;28;20026;-87
2023/06/23 02:17:54;;;;;;;11.75;9.75;;;15.90;99.90;;;-144.05;99.24;56921.06;5017926;28;20087;-90
2023/06/23 02:20:23;;;;;;;14.20;11.02;;;16.00;99.90;;;-144.05;99.40;56921.06;5016064;28;20470;-89
2023/06/23 02:22:52;;;;;;;14.45;10.60;;;15.90;99.90;;;-144.05;100.00;56935.91;5017516;28;20244;-88
2023/06/23 02:25:20;;;;;;;12.38;10.40;;;16.00;99.90;;;-144.05;99.31;56916.81;5017913;28;20032;-89
2023/06/23 02:27:47;;;;;;;14.43;10.50;;;16.00;99.90;;;-144.05;99.44;56908.31;5017584;28;20068;-86
2023/06/23 02:30:17;;;;;;;16.50;10.75;;;15.90;99.90;;;-144.05;99.01;56916.81;5017820;28;20382;-86
2023/06/23 02:32:47;;;;;;;11.88;9.90;;;16.00;99.90;;;-144.05;98.96;56935.91;5017124;28;20129;-89
2023/06/23 02:35:14;;;;;;;12.57;9.60;;;16.00;99.90;;;-144.05;98.67;56914.69;5034962;28;20067;-84
2023/06/23 02:37:52;;;;;;;12.95;9.75;;;16.00;99.90;;;-144.05;98.68;56927.41;5018049;28;20031;-88
2023/06/23 02:40:25;;;;;;;15.68;12.60;;;16.00;99.90;;;-144.05;99.27;56912.56;5016538;28;20026;-89
2023/06/23 02:43:23;;;;;;;15.48;12.25;;;16.00;99.90;;;-144.05;99.06;56914.69;5015873;28;20099;-90
2023/06/23 02:45:57;;;;;;;16.27;12.30;;;16.10;99.90;;;-144.05;98.70;56921.06;5018843;28;20025;-89
2023/06/23 02:48:33;;;;;;;15.98;12.63;;;16.10;99.90;;;-144.05;99.09;56921.06;5017994;28;20025;-89
2023/06/23 02:51:02;;;;;;;16.92;13.07;;;16.10;99.90;;;-144.05;99.30;56918.94;5038738;28;20037;-87
2023/06/23 02:53:37;;;;;;;18.65;15.13;;;16.10;99.90;;;-144.05;99.72;56933.78;5022619;28;20030;-90
2023/06/23 02:56:19;;;;;;;19.42;14.50;;;16.10;99.90;;;-144.05;99.75;56908.31;5020729;28;20084;-90
2023/06/23 02:58:51;;;;;;;18.33;14.88;;;16.10;99.90;;;-144.05;99.24;56925.28;5019963;28;20045;-86
2023/06/23 03:01:22;;;;;;;18.35;14.30;;;16.10;99.90;;;-144.05;98.82;56929.53;5018403;28;20022;-89
2023/06/23 03:03:49;;;;;;;18.85;14.70;;;16.10;99.90;;;-144.05;99.32;56933.78;5037356;28;20025;-86
2023/06/23 03:06:22;;;;;;;18.27;15.98;;;16.10;99.90;;;-144.05;99.09;56908.31;5017687;28;20110;-87
2023/06/23 03:08:50;;;;;;;21.58;17.42;;;16.10;99.90;;;-144.05;99.22;56925.28;5018332;28;20045;-88
2023/06/23 03:11:20;;;;;;;20.85;15.88;;;16.10;99.90;;;-144.05;99.14;56912.56;5018230;28;20441;-89
2023/06/23 03:13:49;;;;;;;20.15;15.30;;;16.10;99.90;;;-144.05;99.12;56942.28;5017782;28;20025;-90
2023/06/23 03:17:21;;;;;;;22.75;17.42;;;16.10;99.90;;;-144.05;98.91;56918.94;5018269;28;20047;-87
2023/06/23 03:20:11;;;;;;;20.10;15.07;;;16.10;99.90;;;-144.05;98.98;56957.16;4957884;28;20466;-86
2023/06/23 03:22:48;;;;;;;21.88;16.38;;;16.10;99.90;;;-144.05;98.96;56916.81;4957621;28;20027;-86
2023/06/23 03:25:27;;;;;;;23.67;16.67;;;16.10;99.90;;;-144.05;98.85;56948.66;5011957;28;20033;-86
2023/06/23 03:28:08;;;;;;;23.85;16.75;;;16.10;99.90;;;-144.05;99.12;56916.81;5017647;28;20025;-85
2023/06/23 03:30:45;;;;;;;22.02;16.83;;;16.10;99.90;;;-144.05;99.32;56904.06;5016639;28;20426;-85
2023/06/23 03:33:34;;;;;;;22.10;16.75;;;16.10;99.90;;;-144.05;99.25;56925.28;5034871;28;20057;-88
2023/06/23 03:36:16;;;;;;;19.05;16.20;;;16.10;99.90;;;-144.05;98.76;56940.16;5017492;28;20496;-88
2023/06/23 03:39:09;;;;;;;22.75;16.67;;;16.00;99.90;;;-144.05;98.94;56933.78;5018769;28;20400;-88
2023/06/23 03:41:41;;;;;;;21.35;16.02;;;16.10;99.90;;;-144.05;98.88;56912.56;5035918;28;20115;-84
2023/06/23 03:44:44;;;;;;;24.63;18.13;;;16.00;99.90;;;-144.05;98.96;56916.81;5020032;28;20029;-87
2023/06/23 03:47:19;;;;;;;21.75;16.73;;;16.00;99.90;;;-144.05;98.76;56957.16;5034970;28;20477;-86
2023/06/23 03:50:10;;;;;;;20.60;16.85;;;16.00;99.90;;;-144.05;98.86;56944.41;5017778;28;20041;-87
2023/06/23 03:52:42;;;;;;;22.42;16.50;;;16.00;99.90;;;-144.05;98.78;56918.94;5016396;28;20027;-86
2023/06/23 03:55:13;;;;;;;22.40;17.77;;;16.00;99.90;;;-144.05;99.16;56938.03;5033288;28;20049;-86
2023/06/23 03:57:43;;;;;;;22.35;17.55;;;16.00;99.90;;;-144.05;99.06;56921.06;5037332;22;20496;-90
2023/06/23 04:00:11;;;;;;;22.58;18.05;;;16.00;99.90;;;-144.05;99.22;56921.06;5013759;28;20092;-89
2023/06/23 04:02:44;;;;;;;22.50;18.10;;;16.00;99.90;;;-144.05;99.14;56895.56;5032101;28;20079;-89
2023/06/23 04:05:13;;;;;;;25.92;20.30;;;16.00;99.90;;;-144.05;99.35;56944.41;5019846;28;20053;-85
2023/06/23 04:07:47;;;;;;;27.67;21.60;;;16.00;99.90;;;-144.05;99.64;56942.28;5005544;28;20082;-87
2023/06/23 04:10:19;;;;;;;27.95;23.42;;;16.00;99.90;;;-144.05;99.45;56929.53;5011851;28;20045;-89
2023/06/23 04:12:51;;;;;;;29.88;23.42;;;16.00;99.90;;;-144.05;99.29;56950.78;5011462;28;20034;-87
2023/06/23 04:15:24;;;;;;;32.47;25.60;;;16.00;99.90;;;-144.05;99.32;56914.69;4994859;28;20034;-88
2023/06/23 04:17:55;;;;;;;32.72;26.58;;;16.10;99.90;;;-144.05;99.36;56918.94;4994276;28;20034;-90
2023/06/23 04:20:25;;;;;;;31.50;24.75;;;16.10;99.90;;;-144.05;99.20;56925.28;5012018;28;20442;-88
2023/06/23 04:22:54;;;;;;;36.92;27.00;;;16.10;99.90;;;-144.05;99.34;56944.41;4994138;28;20029;-88
2023/06/23 04:25:23;;;;;;;40.13;27.38;;;16.10;99.90;;;-144.05;99.37;56946.53;5011234;28;20037;-87
2023/06/23 04:27:58;;;;;;;33.65;25.00;;;16.00;99.90;;;-144.05;99.55;56957.16;5010666;28;20065;-88
2023/06/23 04:30:29;;;;;;;36.22;25.05;;;16.10;99.90;;;-144.05;99.47;56935.91;4994112;28;20509;-89
2023/06/23 04:32:55;;;;;;;35.63;24.42;;;16.10;99.90;;;-144.05;99.14;56929.53;5010475;28;20029;-87
2023/06/23 04:35:21;;;;;;;31.70;23.73;;;16.10;99.90;;;-144.05;99.04;56931.66;5010412;28;20038;-87
2023/06/23 04:38:03;;;;;;;34.38;25.75;;;16.10;99.90;;;-144.05;98.74;56921.06;4994572;28;20034;-89
2023/06/23 04:40:43;;;;;;;32.78;23.73;;;16.10;99.90;;;-144.05;98.84;56918.94;5011147;28;20034;-90
2023/06/23 04:43:18;;;;;;;33.20;24.55;;;16.10;99.90;;;-144.05;98.96;56935.91;5013180;28;20037;-88
2023/06/23 04:45:57;;;;;;;35.60;25.77;;;16.10;99.90;;;-144.05;98.82;56942.28;5014509;28;20475;-89
2023/06/23 04:48:31;;;;;;;32.72;25.45;;;16.20;99.90;;;-144.05;98.99;56946.53;5014031;28;20068;-90
2023/06/23 04:51:04;;;;;;;30.88;25.23;;;16.20;99.90;;;-144.05;99.17;56940.16;5014016;28;20029;-90
2023/06/23 04:53:38;;;;;;;35.38;25.60;;;16.20;99.90;;;-144.05;99.03;56921.06;4997982;28;20037;-90
2023/06/23 04:56:14;;;;;;;32.88;25.85;;;16.20;99.90;;;-144.05;98.95;56940.16;5015126;28;20038;-90
2023/06/23 04:58:46;;;;;;;31.38;24.90;;;16.20;99.90;;;-144.05;98.59;56946.53;4997849;28;20034;-89
2023/06/23 05:01:15;;;;;;;37.10;27.88;;;16.20;99.90;;;-144.05;98.75;56925.28;4997809;28;20038;-88
2023/06/23 05:03:45;;;;;;;37.58;27.55;;;16.20;99.90;;;-144.05;98.08;56942.28;4997622;28;20026;-89
2023/06/23 05:06:16;;;;;;;39.10;27.73;;;16.20;99.90;;;-144.05;98.38;56940.16;4997677;28;20502;-89
2023/06/23 05:08:47;;;;;;;35.53;27.05;;;16.30;99.90;;;-144.05;98.50;56916.81;4998548;28;20038;-89
2023/06/23 05:11:17;;;;;;;32.70;25.98;;;16.30;99.90;;;-144.05;98.62;56933.78;5001213;28;20033;-89
2023/06/23 05:13:46;;;;;;;36.08;27.98;;;16.30;99.90;;;-144.05;98.17;56944.41;5001883;28;20583;-88
2023/06/23 05:16:14;;;;;;;36.15;27.63;;;16.40;99.90;;;-144.05;98.54;56950.78;5019330;28;20537;-89
2023/06/23 05:18:44;;;;;;;39.30;27.75;;;16.40;99.90;;;-144.05;98.47;56938.03;5000913;28;20060;-92
2023/06/23 05:21:16;;;;;;;35.17;27.08;;;16.40;99.90;;;-144.05;97.79;56938.03;4999642;28;20041;-88
2023/06/23 05:23:47;;;;;;;34.15;27.70;;;16.40;99.90;;;-144.05;97.92;56933.78;5000834;28;20033;-90
2023/06/23 05:26:15;;;;;;;34.83;27.02;;;16.40;99.90;;;-144.05;97.43;56946.53;5000737;28;20037;-89
2023/06/23 05:28:46;;;;;;;34.28;27.98;;;16.40;99.90;;;-144.05;97.38;56910.44;5017997;28;20025;-89
2023/06/23 05:31:16;;;;;;;36.75;27.85;;;16.40;99.90;;;-144.05;97.39;56929.53;5019896;28;20033;-90
2023/06/23 05:33:48;;;;;;;37.80;28.75;;;16.50;99.90;;;-144.05;96.92;56921.06;5001589;28;20037;-90
2023/06/23 05:36:18;;;;;;;35.05;27.60;;;16.60;99.90;;;-144.05;96.88;56944.41;5001813;28;20034;-90
2023/06/23 05:38:48;;;;;;;33.33;27.40;;;16.60;99.90;;;-144.05;96.80;56933.78;5001370;28;20057;-89
2023/06/23 05:41:15;;;;;;;39.25;28.45;;;16.70;99.90;;;-144.05;96.55;56927.41;5001054;28;20069;-90
2023/06/23 05:43:41;;;;;;;33.83;28.17;;;16.70;99.90;;;-144.05;95.91;56940.16;5001200;28;20489;-90
2023/06/23 05:46:16;;;;;;;32.15;27.30;;;16.70;99.90;;;-144.05;96.19;56931.66;5002281;28;20038;-88
2023/06/23 05:49:02;;;;;;;38.65;29.00;;;16.70;99.90;;;-144.05;95.77;56916.81;5018265;28;20026;-90
2023/06/23 05:51:32;;;;;;;35.30;26.92;;;16.70;99.90;;;-144.05;95.30;56933.78;5001140;28;20037;-91
2023/06/23 05:54:09;;;;;;;32.55;26.08;;;16.80;99.90;;;-144.05;95.20;56959.28;5002360;28;20079;-88
2023/06/23 05:56:57;;;;;;;36.00;27.48;;;16.80;99.90;;;-144.05;94.72;56921.06;5001615;28;20030;-88
2023/06/23 05:59:58;;;;;;;31.10;26.50;;;16.80;99.90;;;-144.05;94.19;56938.03;5001352;28;20034;-91
2023/06/23 06:02:34;;;;;;;32.08;26.55;;;16.90;99.90;;;-144.05;94.02;56955.03;5000487;28;20033;-86
2023/06/23 06:05:07;;;;;;;32.05;24.90;;;17.00;99.90;;;-144.05;93.63;56916.81;5000908;28;20034;-91
2023/06/23 06:07:36;;;;;;;36.30;27.45;;;17.10;99.90;;;-144.05;92.71;56948.66;5000858;28;20030;-90
2023/06/23 06:10:07;;;;;;;29.17;24.73;;;17.20;99.90;;;-144.05;92.34;56952.91;4998706;28;20107;-88
2023/06/23 06:12:38;;;;;;;29.35;24.58;;;17.30;99.90;;;-144.05;92.50;56933.78;4998369;28;20030;-88
2023/06/23 06:15:07;;;;;;;31.02;25.75;;;17.40;99.90;;;-144.05;91.21;56929.53;4998676;28;20493;-88
2023/06/23 06:17:40;;;;;;;27.13;24.00;;;17.30;99.90;;;-144.05;90.99;56940.16;4998725;28;20516;-88
2023/06/23 06:20:12;;;;;;;30.33;25.52;;;17.30;99.90;;;-144.05;91.17;56918.94;5001032;28;20030;-87
2023/06/23 06:22:43;;;;;;;26.08;22.30;;;17.50;99.90;;;-144.05;90.17;56946.53;4998953;28;20022;-86
2023/06/23 06:25:13;;;;;;;28.63;23.63;;;17.70;99.90;;;-144.05;89.06;56957.16;5000188;28;20033;-87
2023/06/23 06:27:45;;;;;;;25.88;21.60;;;18.00;99.90;;;-144.05;87.50;56946.53;4999844;28;20033;-88
2023/06/23 06:30:15;;;;;;;22.15;18.60;;;18.50;99.90;;;-144.05;82.89;56946.53;5000652;28;20048;-90
2023/06/23 06:32:45;;;;;;;18.92;16.77;;;18.60;99.90;;;-144.05;83.24;56955.03;5000006;28;20030;-89
2023/06/23 06:35:15;;;;;;;18.70;16.17;;;18.70;99.90;;;-144.05;82.70;56976.28;5000000;28;20104;-85
2023/06/23 06:37:49;;;;;;;18.67;15.73;;;18.70;99.90;;;-144.05;82.97;56940.16;5004903;28;20026;-84
2023/06/23 06:40:27;;;;;;;23.98;17.25;;;18.60;99.90;;;-144.05;81.44;56957.16;5008947;28;20044;-85
2023/06/23 06:42:53;;;;;;;19.75;16.63;;;18.70;99.90;;;-144.05;81.45;56944.41;4998985;28;20056;-87
2023/06/23 06:45:19;;;;;;;17.23;14.45;;;18.60;99.90;;;-144.05;82.14;56942.28;5015783;28;20026;-88
2023/06/23 06:47:49;;;;;;;17.58;14.65;;;18.70;99.90;;;-144.05;81.05;56933.78;5000076;28;20500;-84
2023/06/23 06:50:17;;;;;;;18.08;14.32;;;18.90;99.90;;;-144.05;80.24;56950.78;4999585;28;20022;-87
2023/06/23 06:52:47;;;;;;;16.25;14.55;;;19.20;99.90;;;-144.05;78.68;56965.66;4998705;28;20037;-89
2023/06/23 06:55:19;;;;;;;18.30;13.13;;;19.40;99.90;;;-144.05;76.34;56969.91;4999171;28;20034;-86
2023/06/23 06:57:47;;;;;;;20.63;13.18;;;19.50;99.90;;;-144.05;75.73;56963.53;5016517;28;20104;-85
2023/06/23 07:00:20;;;;;;;16.70;13.23;;;19.80;99.90;;;-144.05;74.16;56982.66;5017432;28;20030;-87
2023/06/23 07:02:47;;;;;;;15.73;12.10;;;20.10;99.90;;;-144.05;73.53;56989.00;5019987;28;20405;-86
2023/06/23 07:05:13;;;;;;;15.85;12.52;;;20.50;99.90;;;-144.05;72.18;56982.66;4999472;28;20112;-87
2023/06/23 07:07:40;;;;;;;16.13;11.82;;;20.40;99.90;;;-144.05;72.44;56957.16;5000938;28;20088;-88
2023/06/23 07:10:06;;;;;;;15.02;11.77;;;20.10;99.90;;;-144.05;72.75;56986.91;5001708;28;20026;-83
2023/06/23 07:12:32;;;;;;;16.52;12.98;;;19.90;99.90;;;-144.05;75.08;56969.91;5018130;28;20026;-85
2023/06/23 07:14:58;;;;;;;14.43;11.25;;;20.00;99.90;;;-144.05;74.06;56995.38;5001009;28;20026;-88
2023/06/23 07:17:24;;;;;;;13.60;10.55;;;20.50;99.90;;;-144.05;71.78;56980.53;4999708;28;20030;-87
2023/06/23 07:19:50;;;;;;;12.48;9.27;;;20.70;99.90;;;-144.05;71.06;56978.41;5000840;28;20447;-84
2023/06/23 07:22:18;;;;;;;13.15;9.57;;;21.00;99.90;;;-144.05;68.66;56989.00;5002244;28;20033;-85
2023/06/23 07:24:44;;;;;;;11.95;9.10;;;21.20;99.90;;;-144.05;66.76;56993.25;5002363;28;20030;-83
2023/06/23 07:27:11;;;;;;;13.18;8.30;;;21.20;99.90;;;-144.05;67.49;56982.66;5019433;28;20045;-87
2023/06/23 07:29:37;;;;;;;11.73;8.35;;;21.30;99.90;;;-144.05;69.04;56999.63;5018343;28;20072;-85
2023/06/23 07:32:03;;;;;;;10.65;7.20;;;21.10;99.90;;;-144.05;68.92;56976.28;5019632;28;20040;-86
2023/06/23 07:34:29;;;;;;;10.88;8.20;;;20.90;99.90;;;-144.05;69.25;56969.91;5019413;28;20026;-86
2023/06/23 07:36:55;;;;;;;10.55;8.50;;;20.70;99.90;;;-144.05;70.13;56991.13;5001411;28;20030;-86
2023/06/23 07:39:21;;;;;;;8.70;7.65;;;20.90;99.90;;;-144.05;68.85;56980.53;5002238;28;20080;-85
2023/06/23 07:41:47;;;;;;;10.65;6.72;;;21.10;99.90;;;-144.05;67.78;56995.38;5018944;28;20038;-86
2023/06/23 07:44:13;;;;;;;8.93;6.35;;;21.00;99.90;;;-144.05;65.64;56984.78;5019129;28;20459;-87
2023/06/23 07:46:39;;;;;;;9.10;5.95;;;20.80;99.90;;;-144.05;66.59;56955.03;5001697;28;20112;-85
2023/06/23 07:49:05;;;;;;;8.75;6.55;;;20.60;99.90;;;-144.05;67.37;56986.91;5002123;28;20022;-84
2023/06/23 07:51:30;;;;;;;10.90;6.45;;;20.50;99.90;;;-144.05;67.19;56965.66;5019861;28;20053;-85
2023/06/23 07:53:56;;;;;;;11.98;6.85;;;20.30;99.90;;;-144.05;67.95;56986.91;5019250;28;20101;-88
2023/06/23 07:56:23;;;;;;;9.52;6.15;;;20.20;99.90;;;-144.05;69.06;56984.78;5018595;28;20069;-86
2023/06/23 07:58:49;;;;;;;6.53;5.70;;;20.10;99.90;;;-144.05;69.01;56972.03;5001808;28;20033;-86
2023/06/23 08:01:15;;;;;;;6.68;5.57;;;19.90;99.90;;;-144.05;69.13;56993.25;5019669;28;20030;-88
2023/06/23 08:03:46;;;;;;;9.70;6.25;;;19.80;99.90;;;-144.05;70.36;56991.13;5019054;28;20524;-85
2023/06/23 08:06:13;;;;;;;8.00;6.25;;;19.70;99.90;;;-144.05;69.82;56986.91;5020844;28;20496;-86
2023/06/23 08:08:40;;;;;;;9.45;5.53;;;20.00;99.90;;;-144.05;67.72;56984.78;5018433;28;20498;-84
2023/06/23 08:11:07;;;;;;;8.13;5.75;;;20.60;99.90;;;-144.05;64.73;57001.75;5003150;28;20397;-85
2023/06/23 08:13:32;;;;;;;10.27;5.43;;;21.20;99.90;;;-144.05;62.15;57003.88;5003553;28;20029;-87
2023/06/23 08:15:58;;;;;;;10.38;5.25;;;21.60;99.90;;;-144.05;59.62;57003.88;5019853;28;20030;-86
2023/06/23 08:18:24;;;;;;;7.03;3.97;;;22.20;99.90;;;-144.05;58.17;57014.50;5023332;28;20064;-85
2023/06/23 08:20:50;;;;;;;8.48;4.80;;;22.70;99.90;;;-144.05;57.07;57006.00;5023488;28;20371;-86
2023/06/23 08:23:16;;;;;;;6.43;3.80;;;23.00;99.90;;;-144.05;57.09;57023.00;5025373;28;20037;-84
2023/06/23 08:25:42;;;;;;;5.22;3.70;;;22.80;99.90;;;-144.05;55.89;57018.75;5024021;28;20032;-85
2023/06/23 08:28:08;;;;;;;5.85;3.60;;;22.40;99.90;;;-144.05;56.64;57010.25;5022429;28;20030;-83
2023/06/23 08:30:34;;;;;;;5.78;3.40;;;22.20;99.90;;;-144.05;56.84;56999.63;5007401;28;20056;-85
2023/06/23 08:32:59;;;;;;;4.40;3.22;;;22.20;99.90;;;-144.05;56.42;57016.63;5023261;28;20235;-86
2023/06/23 08:35:26;;;;;;;7.70;3.65;;;22.30;99.90;;;-144.05;55.05;57031.50;5008414;28;20041;-85
2023/06/23 08:37:53;;;;;;;5.70;3.80;;;22.70;99.90;;;-144.05;54.05;57025.13;5023238;28;20030;-86
2023/06/23 08:40:19;;;;;;;5.15;3.63;;;23.00;99.90;;;-144.05;54.08;57023.00;5022958;28;20134;-88
2023/06/23 08:42:46;;;;;;;4.65;3.20;;;23.40;99.90;;;-144.05;52.44;57052.75;5007367;28;20033;-86
2023/06/23 08:45:19;;;;;;;4.50;3.15;;;23.60;99.90;;;-144.05;52.39;57044.25;5006966;28;20113;-86
2023/06/23 08:47:53;;;;;;;3.92;2.90;;;23.60;99.90;;;-144.05;47.50;57050.63;5006909;28;20425;-85
2023/06/23 08:50:20;;;;;;;5.93;2.88;;;23.20;99.90;;;-144.05;50.45;57042.13;5007145;28;20037;-86
2023/06/23 08:52:47;;;;;;;7.50;3.80;;;23.50;99.90;;;-144.05;50.21;57050.63;5008904;28;20037;-84
2023/06/23 08:55:13;;;;;;;4.18;3.08;;;23.70;99.90;;;-144.05;48.92;57048.50;5008345;28;20037;-85
2023/06/23 08:57:39;;;;;;;3.97;2.92;;;24.00;99.90;;;-144.05;48.82;57082.47;5008339;28;20432;-86
2023/06/23 09:00:09;;;;;;;4.10;3.10;;;24.10;99.90;;;-144.05;48.85;57078.22;5025101;28;20033;-86
2023/06/23 09:02:35;;;;;;;5.50;3.33;;;24.40;99.90;;;-144.05;49.97;57103.72;5009704;28;20030;-84
2023/06/23 09:05:01;;;;;;;3.65;2.58;;;24.50;99.90;;;-144.05;47.72;57054.88;5008939;28;20034;-88
2023/06/23 09:07:28;;;;;;;3.92;3.22;;;24.30;99.90;;;-144.05;46.73;57078.22;5015534;28;20102;-83
2023/06/23 09:09:58;;;;;;;5.93;3.10;;;23.80;99.90;;;-144.05;48.47;57050.63;5039637;28;20037;-83
2023/06/23 09:12:25;;;;;;;5.60;3.08;;;23.60;99.90;;;-144.05;49.21;57044.25;5018363;28;20050;-86
2023/06/23 09:14:58;;;;;;;8.93;3.40;;;23.20;99.90;;;-144.05;49.84;57042.13;5005720;28;20571;-87
2023/06/23 09:17:27;;;;;;;5.32;3.20;;;23.30;99.90;;;-144.05;49.72;57042.13;5007761;28;20040;-87
2023/06/23 09:19:54;;;;;;;4.75;3.28;;;23.50;99.90;;;-144.05;47.16;57069.72;5015077;28;20119;-91
2023/06/23 09:22:20;;;;;;;6.78;3.13;;;23.80;99.90;;;-144.05;47.21;57080.34;5012207;28;20083;-86
2023/06/23 09:24:47;;;;;;;4.85;3.20;;;23.80;99.90;;;-144.05;47.65;57078.22;5017056;28;20068;-85
2023/06/23 09:27:15;;;;;;;4.00;2.83;;;23.60;99.90;;;-144.05;49.18;57056.97;5015391;28;20042;-87
2023/06/23 09:29:41;;;;;;;4.32;3.25;;;23.40;99.90;;;-144.05;47.79;57048.50;5018816;28;20049;-84
2023/06/23 09:32:10;;;;;;;4.18;3.30;;;23.10;99.90;;;-144.05;49.38;57020.88;5020114;28;20037;-84
2023/06/23 09:34:40;;;;;;;7.07;3.40;;;23.00;99.90;;;-144.05;49.95;57016.63;5018383;28;20037;-83
2023/06/23 09:37:14;;;;;;;6.97;3.05;;;23.10;99.90;;;-144.05;49.13;57012.38;5014233;28;20056;-87
2023/06/23 09:39:48;;;;;;;4.63;3.35;;;23.50;99.90;;;-144.05;46.93;57050.63;5022759;28;20086;-86
2023/06/23 09:42:15;;;;;;;4.20;2.92;;;23.60;99.90;;;-144.05;44.21;57052.75;5014416;28;20363;-83
2023/06/23 09:44:48;;;;;;;4.40;2.67;;;24.20;99.90;;;-144.05;43.86;57056.97;5025476;28;20030;-83
2023/06/23 09:47:18;;;;;;;5.32;3.17;;;24.60;99.90;;;-144.05;44.01;57103.72;5009158;28;20030;-84
2023/06/23 09:49:49;;;;;;;4.70;3.00;;;24.80;99.90;;;-144.05;43.98;57082.47;5024400;28;20095;-88
2023/06/23 09:52:27;;;;;;;7.50;2.75;;;24.60;99.90;;;-144.05;43.48;57086.72;5024984;28;20030;-86
2023/06/23 09:54:55;;;;;;;3.97;2.60;;;24.70;99.90;;;-144.05;43.27;57093.09;5024831;28;20441;-86
2023/06/23 09:57:21;;;;;;;4.97;2.67;;;24.80;99.90;;;-144.05;43.20;57073.97;5025584;23;20046;-84
2023/06/23 09:59:53;;;;;;;5.22;2.60;;;24.50;99.90;;;-144.05;44.51;57090.97;5001333;28;20040;-85
2023/06/23 10:02:26;;;;;;;5.43;2.95;;;24.40;99.90;;;-144.05;43.54;57095.22;5000622;28;20524;-84
2023/06/23 10:05:03;;;;;;;3.10;2.42;;;25.00;99.90;;;-144.05;42.31;57116.47;5021171;28;20065;-86
2023/06/23 10:07:31;;;;;;;5.10;2.83;;;25.40;99.90;;;-144.05;40.19;57135.56;5006236;28;20022;-84
2023/06/23 10:10:07;;;;;;;4.28;2.40;;;25.70;99.90;;;-144.05;38.05;57154.69;5001965;28;20040;-84
2023/06/23 10:12:34;;;;;;;4.85;2.90;;;25.90;99.90;;;-144.05;38.36;57156.81;5000596;28;20030;-84
2023/06/23 10:15:00;;;;;;;5.03;2.97;;;25.90;99.90;;;-144.05;38.42;57116.47;5017896;28;20036;-85
2023/06/23 10:17:26;;;;;;;4.13;3.00;;;25.90;99.90;;;-144.05;38.74;57154.69;5001236;28;20505;-84
2023/06/23 10:19:56;;;;;;;3.85;3.08;;;25.80;99.90;;;-144.05;40.48;57139.81;5000048;28;20105;-84